createdAt,value
2018-04-22T00:00:44.740Z,8.1
2018-04-22T00:01:34.805Z,8.1
2018-04-22T00:02:24.864Z,8.1
2018-04-22T00:03:15.224Z,8.1
2018-04-22T00:04:05.268Z,8.1
2018-04-22T00:04:55.271Z,8.1
2018-04-22T00:05:45.393Z,8.1
2018-04-22T00:06:35.466Z,8
2018-04-22T00:07:25.332Z,7.9
2018-04-22T00:08:15.599Z,7.9
2018-04-22T00:09:05.397Z,7.9
2018-04-22T00:09:55.720Z,7.9
2018-04-22T00:10:45.769Z,7.9
2018-04-22T00:11:35.564Z,8
2018-04-22T00:12:25.912Z,8
2018-04-22T00:13:15.714Z,8
2018-04-22T00:14:06.023Z,7.9
2018-04-22T00:14:56.121Z,7.9
2018-04-22T00:15:45.969Z,7.8
2018-04-22T00:16:35.962Z,7.8
2018-04-22T00:17:25.742Z,7.8
2018-04-22T00:18:16.348Z,7.8
2018-04-22T00:19:06.401Z,7.8
2018-04-22T00:19:56.463Z,7.8
2018-04-22T00:20:45.978Z,7.8
2018-04-22T00:21:36.625Z,7.8
2018-04-22T00:22:26.391Z,7.8
2018-04-22T00:23:16.714Z,7.8
2018-04-22T00:24:06.779Z,7.8
2018-04-22T00:24:56.853Z,7.8
2018-04-22T00:25:46.649Z,7.8
2018-04-22T00:26:36.696Z,7.8
2018-04-22T00:27:27.050Z,7.8
2018-04-22T00:28:17.112Z,7.7
2018-04-22T00:29:06.891Z,7.6
2018-04-22T00:29:56.979Z,7.6
2018-04-22T00:30:47.350Z,7.6
2018-04-22T00:31:37.084Z,7.6
2018-04-22T00:32:27.434Z,7.6
2018-04-22T00:33:17.491Z,7.6
2018-04-22T00:34:07.567Z,7.6
2018-04-22T00:34:57.429Z,7.6
2018-04-22T00:35:47.407Z,7.6
2018-04-22T00:36:37.755Z,7.5
2018-04-22T00:37:27.539Z,7.4
2018-04-22T00:38:17.596Z,7.4
2018-04-22T00:39:07.923Z,7.4
2018-04-22T00:39:58.004Z,7.4
2018-04-22T00:40:47.798Z,7.4
2018-04-22T00:41:37.850Z,7.4
2018-04-22T00:42:27.640Z,7.4
2018-04-22T00:43:17.987Z,7.4
2018-04-22T00:44:08.045Z,7.4
2018-04-22T00:44:58.417Z,7.4
2018-04-22T00:45:48.218Z,7.4
2018-04-22T00:46:38.508Z,7.4
2018-04-22T00:47:27.706Z,7.4
2018-04-22T00:48:18.648Z,7.4
2018-04-22T00:49:08.696Z,7.4
2018-04-22T00:49:58.754Z,7.4
2018-04-22T00:50:48.826Z,7.4
2018-04-22T00:51:38.902Z,7.4
2018-04-22T00:52:28.438Z,7.4
2018-04-22T00:53:18.999Z,7.4
2018-04-22T00:54:08.800Z,7.4
2018-04-22T00:54:59.145Z,7.4
2018-04-22T00:55:48.975Z,7.4
2018-04-22T00:56:39.279Z,7.4
2018-04-22T00:57:29.347Z,7.3
2018-04-22T00:58:19.406Z,7.3
2018-04-22T00:59:08.899Z,7.3
2018-04-22T00:59:59.266Z,7.3
2018-04-22T01:00:49.578Z,7.3
2018-04-22T01:01:39.642Z,7.3
2018-04-22T01:02:29.428Z,7.3
2018-04-22T01:03:19.774Z,7.4
2018-04-22T01:04:09.892Z,7.4
2018-04-22T01:04:59.348Z,7.5
2018-04-22T01:05:49.690Z,7.6
2018-04-22T01:06:40.036Z,7.6
2018-04-22T01:07:29.806Z,7.6
2018-04-22T01:08:19.888Z,7.6
2018-04-22T01:09:10.235Z,7.7
2018-04-22T01:10:00.301Z,7.8
2018-04-22T01:10:50.372Z,7.8
2018-04-22T01:11:40.408Z,7.7
2018-04-22T01:12:30.488Z,7.7
2018-04-22T01:13:20.520Z,7.6
2018-04-22T01:14:10.332Z,7.6
2018-04-22T01:15:00.666Z,7.5
2018-04-22T01:15:50.435Z,7.5
2018-04-22T01:16:40.818Z,7.5
2018-04-22T01:17:30.305Z,7.6
2018-04-22T01:18:20.916Z,7.6
2018-04-22T01:19:10.700Z,7.6
2018-04-22T01:20:01.044Z,7.6
2018-04-22T01:20:51.117Z,7.5
2018-04-22T01:21:41.186Z,7.5
2018-04-22T01:22:31.251Z,7.5
2018-04-22T01:23:21.042Z,7.6
2018-04-22T01:24:11.075Z,7.6
2018-04-22T01:25:01.449Z,7.8
2018-04-22T01:25:51.214Z,7.8
2018-04-22T01:26:41.049Z,7.8
2018-04-22T01:27:31.040Z,7.8
2018-04-22T01:28:21.683Z,7.8
2018-04-22T01:29:11.481Z,7.9
2018-04-22T01:30:01.540Z,7.9
2018-04-22T01:30:51.864Z,7.9
2018-04-22T01:31:41.940Z,7.8
2018-04-22T01:32:31.719Z,7.8
2018-04-22T01:33:21.540Z,7.8
2018-04-22T01:34:12.121Z,7.8
2018-04-22T01:35:02.182Z,7.6
2018-04-22T01:35:52.251Z,7.6
2018-04-22T01:36:42.361Z,7.6
2018-04-22T01:37:31.806Z,7.5
2018-04-22T01:38:22.169Z,7.4
2018-04-22T01:39:12.489Z,7.4
2018-04-22T01:40:02.607Z,7.4
2018-04-22T01:40:52.628Z,7.4
2018-04-22T01:41:42.717Z,7.3
2018-04-22T01:42:32.486Z,7.3
2018-04-22T01:43:22.536Z,7.3
2018-04-22T01:44:12.611Z,7.3
2018-04-22T01:45:02.689Z,7.3
2018-04-22T01:45:52.997Z,7.3
2018-04-22T01:46:42.795Z,7.2
2018-04-22T01:47:33.156Z,7.1
2018-04-22T01:48:23.201Z,7.1
2018-04-22T01:49:13.265Z,7.1
2018-04-22T01:50:03.358Z,7.1
2018-04-22T01:50:53.384Z,7.1
2018-04-22T01:51:43.180Z,7.1
2018-04-22T01:52:33.239Z,7.1
2018-04-22T01:53:23.578Z,7.1
2018-04-22T01:54:13.366Z,7.1
2018-04-22T01:55:03.154Z,7.1
2018-04-22T01:55:53.796Z,7.1
2018-04-22T01:56:43.849Z,7.1
2018-04-22T01:57:33.915Z,7.1
2018-04-22T01:58:23.696Z,7.4
2018-04-22T01:59:13.478Z,7.4
2018-04-22T02:00:03.840Z,7.3
2018-04-22T02:00:53.598Z,7.3
2018-04-22T02:01:43.941Z,7.3
2018-04-22T02:02:34.284Z,7.3
2018-04-22T02:03:24.077Z,7.4
2018-04-22T02:04:14.417Z,7.4
2018-04-22T02:05:04.500Z,7.4
2018-04-22T02:05:54.014Z,7.4
2018-04-22T02:06:44.597Z,7.3
2018-04-22T02:07:34.678Z,7.3
2018-04-22T02:08:24.746Z,7.3
2018-04-22T02:09:14.529Z,7.3
2018-04-22T02:10:04.309Z,7.1
2018-04-22T02:10:54.942Z,7.1
2018-04-22T02:11:44.978Z,7.1
2018-04-22T02:12:34.780Z,7.1
2018-04-22T02:13:24.835Z,7.3
2018-04-22T02:14:15.185Z,7.4
2018-04-22T02:15:05.264Z,7.4
2018-04-22T02:15:55.317Z,7.3
2018-04-22T02:16:45.355Z,7.3
2018-04-22T02:17:35.432Z,7.3
2018-04-22T02:18:25.485Z,7.3
2018-04-22T02:19:15.543Z,7.4
2018-04-22T02:20:05.339Z,7.4
2018-04-22T02:20:55.674Z,7.3
2018-04-22T02:21:45.202Z,7.3
2018-04-22T02:22:35.529Z,7.3
2018-04-22T02:23:25.847Z,7.3
2018-04-22T02:24:15.913Z,7.2
2018-04-22T02:25:05.423Z,7.3
2018-04-22T02:25:56.069Z,7.3
2018-04-22T02:26:45.896Z,7.3
2018-04-22T02:27:36.204Z,7.3
2018-04-22T02:28:25.698Z,7.1
2018-04-22T02:29:16.027Z,6.9
2018-04-22T02:30:06.403Z,6.8
2018-04-22T02:30:56.444Z,6.7
2018-04-22T02:31:46.236Z,6.6
2018-04-22T02:32:36.625Z,6.4
2018-04-22T02:33:26.638Z,6.4
2018-04-22T02:34:16.436Z,6.4
2018-04-22T02:35:06.787Z,6.4
2018-04-22T02:35:56.840Z,6.4
2018-04-22T02:36:46.599Z,6.5
2018-04-22T02:37:36.408Z,6.4
2018-04-22T02:38:27.053Z,6.4
2018-04-22T02:39:17.082Z,6.3
2018-04-22T02:40:07.124Z,6.3
2018-04-22T02:40:56.909Z,6.3
2018-04-22T02:41:46.709Z,6.3
2018-04-22T02:42:37.348Z,6.4
2018-04-22T02:43:27.432Z,6.4
2018-04-22T02:44:17.179Z,6.4
2018-04-22T02:45:07.532Z,6.4
2018-04-22T02:45:57.614Z,6.4
2018-04-22T02:46:47.674Z,6.4
2018-04-22T02:47:37.141Z,6.4
2018-04-22T02:48:27.784Z,6.4
2018-04-22T02:49:17.822Z,6.4
2018-04-22T02:50:07.909Z,6.3
2018-04-22T02:50:58.011Z,6.3
2018-04-22T02:51:47.770Z,6.3
2018-04-22T02:52:37.512Z,6.3
2018-04-22T02:53:27.610Z,6.3
2018-04-22T02:54:17.943Z,6.3
2018-04-22T02:55:07.996Z,6.4
2018-04-22T02:55:58.061Z,6.4
2018-04-22T02:56:48.134Z,6.4
2018-04-22T02:57:38.194Z,6.4
2018-04-22T02:58:28.252Z,6.4
2018-04-22T02:59:18.576Z,6.4
2018-04-22T03:00:08.656Z,6.4
2018-04-22T03:00:58.447Z,6.3
2018-04-22T03:01:48.836Z,6.3
2018-04-22T03:02:38.298Z,6.3
2018-04-22T03:03:28.335Z,6.4
2018-04-22T03:04:18.965Z,6.4
2018-04-22T03:05:09.023Z,6.4
2018-04-22T03:05:58.254Z,6.4
2018-04-22T03:06:49.168Z,6.4
2018-04-22T03:07:38.390Z,6.4
2018-04-22T03:08:29.271Z,6.4
2018-04-22T03:09:19.086Z,6.4
2018-04-22T03:10:09.120Z,6.4
2018-04-22T03:10:58.643Z,6.4
2018-04-22T03:11:49.574Z,6.4
2018-04-22T03:12:39.617Z,6.4
2018-04-22T03:13:29.379Z,6.4
2018-04-22T03:14:19.449Z,6.3
2018-04-22T03:15:09.786Z,6.3
2018-04-22T03:15:59.852Z,6.3
2018-04-22T03:16:49.646Z,6.3
2018-04-22T03:17:40.005Z,6.3
2018-04-22T03:18:30.050Z,6.3
2018-04-22T03:19:20.112Z,6.2
2018-04-22T03:20:10.168Z,6.2
2018-04-22T03:20:59.381Z,6.2
2018-04-22T03:21:50.016Z,6.2
2018-04-22T03:22:39.808Z,6.1
2018-04-22T03:23:30.128Z,6.1
2018-04-22T03:24:20.504Z,6.1
2018-04-22T03:25:10.469Z,6.1
2018-04-22T03:26:00.602Z,5.9
2018-04-22T03:26:50.682Z,5.8
2018-04-22T03:27:39.896Z,5.7
2018-04-22T03:28:30.526Z,5.6
2018-04-22T03:29:20.307Z,5.5
2018-04-22T03:30:10.929Z,5.4
2018-04-22T03:31:01.016Z,5.4
2018-04-22T03:31:51.087Z,5.4
2018-04-22T03:32:41.144Z,5.5
2018-04-22T03:33:31.177Z,5.5
2018-04-22T03:34:20.951Z,5.5
2018-04-22T03:35:11.311Z,5.4
2018-04-22T03:36:01.393Z,5.4
2018-04-22T03:36:51.461Z,5.4
2018-04-22T03:37:41.502Z,5.3
2018-04-22T03:38:31.552Z,5.3
2018-04-22T03:39:21.615Z,5.3
2018-04-22T03:40:11.681Z,5.3
2018-04-22T03:41:01.773Z,5.4
2018-04-22T03:41:51.528Z,5.4
2018-04-22T03:42:41.307Z,5.4
2018-04-22T03:43:32.010Z,5.4
2018-04-22T03:44:22.002Z,5.4
2018-04-22T03:45:12.050Z,5.5
2018-04-22T03:46:01.878Z,5.5
2018-04-22T03:46:51.628Z,5.5
2018-04-22T03:47:41.676Z,5.6
2018-04-22T03:48:32.037Z,5.6
2018-04-22T03:49:22.373Z,5.6
2018-04-22T03:50:12.160Z,5.7
2018-04-22T03:51:02.499Z,5.6
2018-04-22T03:51:52.577Z,5.7
2018-04-22T03:52:42.645Z,5.7
2018-04-22T03:53:32.421Z,5.7
2018-04-22T03:54:22.757Z,5.8
2018-04-22T03:55:12.824Z,5.8
2018-04-22T03:56:02.921Z,5.9
2018-04-22T03:56:52.383Z,5.9
2018-04-22T03:57:43.006Z,5.8
2018-04-22T03:58:33.104Z,5.7
2018-04-22T03:59:22.598Z,5.7
2018-04-22T04:00:13.196Z,5.6
2018-04-22T04:01:03.515Z,5.6
2018-04-22T04:01:53.074Z,5.6
2018-04-22T04:02:42.832Z,5.6
2018-04-22T04:03:33.156Z,5.7
2018-04-22T04:04:23.543Z,5.8
2018-04-22T04:05:13.590Z,5.8
2018-04-22T04:06:03.667Z,5.9
2018-04-22T04:06:53.708Z,6.1
2018-04-22T04:07:43.499Z,6.4
2018-04-22T04:08:33.848Z,6.6
2018-04-22T04:09:23.618Z,6.6
2018-04-22T04:10:13.676Z,6.5
2018-04-22T04:11:04.042Z,6.5
2018-04-22T04:11:53.812Z,6.6
2018-04-22T04:12:44.160Z,6.8
2018-04-22T04:13:34.229Z,6.7
2018-04-22T04:14:24.262Z,6.9
2018-04-22T04:15:14.331Z,6.9
2018-04-22T04:16:04.124Z,6.9
2018-04-22T04:16:54.476Z,6.9
2018-04-22T04:17:43.976Z,6.9
2018-04-22T04:18:34.312Z,6.9
2018-04-22T04:19:24.766Z,6.9
2018-04-22T04:20:14.449Z,7.1
2018-04-22T04:21:04.785Z,7.2
2018-04-22T04:21:54.560Z,7.3
2018-04-22T04:22:44.912Z,7.4
2018-04-22T04:23:34.724Z,7.4
2018-04-22T04:24:25.034Z,7.6
2018-04-22T04:25:14.845Z,7.7
2018-04-22T04:26:05.177Z,7.8
2018-04-22T04:26:55.251Z,7.8
2018-04-22T04:27:45.343Z,7.8
2018-04-22T04:28:35.130Z,7.8
2018-04-22T04:29:25.472Z,7.8
2018-04-22T04:30:14.923Z,7.7
2018-04-22T04:31:05.549Z,7.7
2018-04-22T04:31:55.606Z,7.6
2018-04-22T04:32:45.660Z,7.6
2018-04-22T04:33:35.737Z,7.6
2018-04-22T04:34:25.826Z,7.6
2018-04-22T04:35:15.885Z,7.6
2018-04-22T04:36:06.136Z,7.7
2018-04-22T04:36:55.152Z,7.9
2018-04-22T04:37:45.767Z,8.1
2018-04-22T04:38:36.131Z,8.1
2018-04-22T04:39:26.193Z,8.1
2018-04-22T04:40:16.441Z,8.2
2018-04-22T04:41:05.768Z,8.3
2018-04-22T04:41:56.088Z,8.4
2018-04-22T04:42:46.431Z,8.4
2018-04-22T04:43:36.506Z,8.4
2018-04-22T04:44:26.558Z,8.4
2018-04-22T04:45:16.618Z,8.6
2018-04-22T04:46:06.398Z,8.6
2018-04-22T04:46:56.738Z,8.7
2018-04-22T04:47:46.804Z,8.8
2018-04-22T04:48:36.858Z,8.9
2018-04-22T04:49:26.719Z,8.9
2018-04-22T04:50:17.037Z,8.9
2018-04-22T04:51:07.081Z,9.1
2018-04-22T04:51:57.124Z,9.3
2018-04-22T04:52:47.199Z,9.4
2018-04-22T04:53:37.248Z,9.3
2018-04-22T04:54:27.545Z,9.3
2018-04-22T04:55:17.372Z,9.4
2018-04-22T04:56:07.479Z,9.6
2018-04-22T04:56:57.503Z,9.6
2018-04-22T04:57:47.558Z,9.6
2018-04-22T04:58:37.625Z,9.5
2018-04-22T04:59:27.705Z,9.6
2018-04-22T05:00:17.637Z,9.5
2018-04-22T05:01:07.827Z,9.6
2018-04-22T05:01:57.905Z,9.6
2018-04-22T05:02:47.690Z,9.5
2018-04-22T05:03:38.025Z,9.5
2018-04-22T05:04:27.808Z,9.4
2018-04-22T05:05:18.150Z,9.7
2018-04-22T05:06:08.197Z,9.9
2018-04-22T05:06:58.257Z,9.9
2018-04-22T05:07:48.034Z,10.1
2018-04-22T05:08:38.386Z,10.3
2018-04-22T05:09:28.440Z,10.3
2018-04-22T05:10:18.033Z,10.4
2018-04-22T05:11:08.634Z,10.3
2018-04-22T05:11:58.110Z,10.3
2018-04-22T05:12:48.421Z,10.3
2018-04-22T05:13:38.199Z,10.4
2018-04-22T05:14:28.563Z,10.4
2018-04-22T05:15:18.630Z,10.4
2018-04-22T05:16:08.395Z,10.4
2018-04-22T05:16:58.797Z,10.4
2018-04-22T05:17:49.093Z,10.6
2018-04-22T05:18:39.178Z,10.7
2018-04-22T05:19:29.249Z,10.8
2018-04-22T05:20:19.267Z,10.9
2018-04-22T05:21:08.790Z,10.8
2018-04-22T05:21:59.413Z,10.8
2018-04-22T05:22:49.465Z,10.8
2018-04-22T05:23:39.511Z,10.9
2018-04-22T05:24:29.329Z,11.1
2018-04-22T05:25:19.648Z,11.3
2018-04-22T05:26:09.173Z,11.2
2018-04-22T05:26:59.508Z,11.3
2018-04-22T05:27:49.827Z,11.1
2018-04-22T05:28:39.909Z,11.3
2018-04-22T05:29:29.963Z,11.4
2018-04-22T05:30:19.737Z,11.3
2018-04-22T05:31:10.282Z,11.4
2018-04-22T05:32:00.163Z,11.5
2018-04-22T05:32:50.224Z,11.7
2018-04-22T05:33:40.278Z,11.8
2018-04-22T05:34:30.360Z,11.8
2018-04-22T05:35:20.417Z,11.8
2018-04-22T05:36:10.482Z,11.8
2018-04-22T05:37:00.543Z,11.9
2018-04-22T05:37:50.608Z,12
2018-04-22T05:38:40.644Z,12.2
2018-04-22T05:39:30.448Z,12.3
2018-04-22T05:40:20.785Z,12.4
2018-04-22T05:41:10.575Z,12.4
2018-04-22T05:42:00.926Z,12.4
2018-04-22T05:42:50.989Z,12.5
2018-04-22T05:43:40.778Z,12.5
2018-04-22T05:44:30.557Z,12.2
2018-04-22T05:45:21.160Z,12.1
2018-04-22T05:46:11.239Z,12.1
2018-04-22T05:47:01.290Z,12.1
2018-04-22T05:47:51.376Z,12.1
2018-04-22T05:48:41.440Z,11.9
2018-04-22T05:49:31.492Z,12.1
2018-04-22T05:50:21.556Z,12.3
2018-04-22T05:51:10.773Z,12.3
2018-04-22T05:52:01.416Z,12.6
2018-04-22T05:52:51.481Z,12.6
2018-04-22T05:53:41.796Z,12.6
2018-04-22T05:54:31.861Z,12.3
2018-04-22T05:55:21.921Z,12
2018-04-22T05:56:11.998Z,11.9
2018-04-22T05:57:01.781Z,11.8
2018-04-22T05:57:51.570Z,11.9
2018-04-22T05:58:42.173Z,12.2
2018-04-22T05:59:32.242Z,12.3
2018-04-22T06:00:21.749Z,12.3
2018-04-22T06:01:11.824Z,12.3
2018-04-22T06:02:02.438Z,12.6
2018-04-22T06:02:52.794Z,12.9
2018-04-22T06:03:42.279Z,13
2018-04-22T06:04:31.772Z,13.2
2018-04-22T06:05:22.424Z,13.3
2018-04-22T06:06:12.497Z,13.4
2018-04-22T06:07:02.256Z,13.6
2018-04-22T06:07:52.914Z,13.8
2018-04-22T06:08:42.835Z,13.6
2018-04-22T06:09:32.736Z,13.5
2018-04-22T06:10:22.494Z,13.3
2018-04-22T06:11:13.198Z,12.8
2018-04-22T06:12:02.953Z,12.4
2018-04-22T06:12:53.250Z,12.5
2018-04-22T06:13:43.304Z,12.7
2018-04-22T06:14:33.112Z,13.1
2018-04-22T06:15:23.464Z,12.8
2018-04-22T06:16:13.521Z,13
2018-04-22T06:17:03.603Z,13.4
2018-04-22T06:17:52.786Z,13.4
2018-04-22T06:18:43.712Z,13.5
2018-04-22T06:19:33.481Z,13.6
2018-04-22T06:20:23.846Z,13.4
2018-04-22T06:21:13.628Z,13.3
2018-04-22T06:22:03.469Z,13.3
2018-04-22T06:22:53.900Z,13.4
2018-04-22T06:23:44.066Z,13.6
2018-04-22T06:24:34.164Z,13.4
2018-04-22T06:25:23.939Z,13.4
2018-04-22T06:26:13.966Z,13.4
2018-04-22T06:27:04.049Z,13.6
2018-04-22T06:27:54.114Z,14.1
2018-04-22T06:28:44.437Z,14
2018-04-22T06:29:34.528Z,13.9
2018-04-22T06:30:24.581Z,13.2
2018-04-22T06:31:14.360Z,13.3
2018-04-22T06:32:04.744Z,13.7
2018-04-22T06:33:44.283Z,14
2018-04-22T06:34:34.054Z,14
2018-04-22T06:35:24.963Z,14.1
2018-04-22T06:36:15.040Z,14.1
2018-04-22T06:37:04.811Z,14.1
2018-04-22T06:37:55.152Z,14.4
2018-04-22T06:38:45.211Z,14.7
2018-04-22T06:39:35.014Z,14.6
2018-04-22T06:40:25.351Z,14.4
2018-04-22T06:41:15.148Z,14.3
2018-04-22T06:42:04.910Z,14.1
2018-04-22T06:42:55.273Z,14.4
2018-04-22T06:43:45.123Z,14.2
2018-04-22T06:44:35.385Z,13.7
2018-04-22T06:45:25.453Z,13.8
2018-04-22T06:46:15.511Z,14.2
2018-04-22T06:47:05.558Z,85
2018-04-22T06:47:55.382Z,14.3
2018-04-22T06:48:45.729Z,14.3
2018-04-22T06:49:35.757Z,14.4
2018-04-22T06:50:26.114Z,14.8
2018-04-22T06:51:15.615Z,15.1
2018-04-22T06:52:05.965Z,15.3
2018-04-22T06:52:56.310Z,15.3
2018-04-22T06:53:45.797Z,15.8
2018-04-22T06:54:36.422Z,15.9
2018-04-22T06:55:26.519Z,15.8
2018-04-22T06:56:16.064Z,16.1
2018-04-22T06:57:06.630Z,16.5
2018-04-22T06:57:56.704Z,15.8
2018-04-22T06:58:47.036Z,15.8
2018-04-22T06:59:36.796Z,15.9
2018-04-22T07:00:26.892Z,16.1
2018-04-22T07:01:16.386Z,16.3
2018-04-22T07:02:06.147Z,16.3
2018-04-22T07:02:56.229Z,16.3
2018-04-22T07:03:46.849Z,16.2
2018-04-22T07:04:37.223Z,16.4
2018-04-22T07:05:27.245Z,16.8
2018-04-22T07:06:16.776Z,16.1
2018-04-22T07:07:06.831Z,16.1
2018-04-22T07:07:57.469Z,15.8
2018-04-22T07:08:47.527Z,15.9
2018-04-22T07:09:37.317Z,15.9
2018-04-22T07:10:26.807Z,15.9
2018-04-22T07:11:17.701Z,15.8
2018-04-22T07:12:07.786Z,16.2
2018-04-22T07:12:57.385Z,16.3
2018-04-22T07:13:47.344Z,16.8
2018-04-22T07:14:37.705Z,17.1
2018-04-22T07:15:28.049Z,17.1
2018-04-22T07:16:18.143Z,17.3
2018-04-22T07:17:08.199Z,17.2
2018-04-22T07:17:58.221Z,17.6
2018-04-22T07:18:48.012Z,17.6
2018-04-22T07:19:38.390Z,18
2018-04-22T07:20:28.445Z,17.9
2018-04-22T07:21:17.995Z,18.2
2018-04-22T07:22:08.548Z,18.6
2018-04-22T07:22:58.589Z,18.9
2018-04-22T07:23:48.698Z,19
2018-04-22T07:24:38.442Z,18.8
2018-04-22T07:25:28.783Z,19.1
2018-04-22T07:26:18.874Z,19.5
2018-04-22T07:27:08.363Z,19.3
2018-04-22T07:27:59.002Z,19.3
2018-04-22T07:28:49.055Z,19
2018-04-22T07:29:38.826Z,18.8
2018-04-22T07:30:28.924Z,18.8
2018-04-22T07:31:18.411Z,18.4
2018-04-22T07:32:09.096Z,18.3
2018-04-22T07:32:58.831Z,18
2018-04-22T07:33:48.903Z,18
2018-04-22T07:34:39.235Z,18.2
2018-04-22T07:36:18.583Z,19
2018-04-22T07:37:09.417Z,19.3
2018-04-22T07:37:58.997Z,19.4
2018-04-22T07:38:49.572Z,18.6
2018-04-22T07:40:29.720Z,19.1
2018-04-22T07:41:20.047Z,19.2
2018-04-22T07:42:10.106Z,19.8
2018-04-22T07:43:00.183Z,19.7
2018-04-22T07:43:49.655Z,19.7
2018-04-22T07:44:39.724Z,19.8
2018-04-22T07:45:30.363Z,20
2018-04-22T07:46:20.410Z,20.2
2018-04-22T07:47:10.197Z,20.5
2018-04-22T07:47:59.983Z,20.8
2018-04-22T07:48:50.045Z,20.8
2018-04-22T07:49:40.403Z,20.8
2018-04-22T07:50:30.721Z,20.9
2018-04-22T07:51:20.825Z,20.7
2018-04-22T07:52:10.871Z,20.5
2018-04-22T07:53:00.927Z,20.6
2018-04-22T07:53:50.727Z,20.6
2018-04-22T07:54:40.572Z,20.5
2018-04-22T07:55:30.837Z,20.4
2018-04-22T07:56:20.718Z,20.3
2018-04-22T07:57:10.945Z,20.1
2018-04-22T07:58:01.012Z,20.1
2018-04-22T07:58:51.094Z,20.5
2018-04-22T07:59:41.161Z,20.4
2018-04-22T08:00:31.219Z,20.7
2018-04-22T08:01:21.021Z,21.1
2018-04-22T08:02:11.353Z,21.3
2018-04-22T08:03:01.433Z,21.6
2018-04-22T08:03:51.483Z,21.3
2018-04-22T08:04:41.825Z,21.4
2018-04-22T08:05:31.605Z,21.6
2018-04-22T08:06:21.934Z,21.7
2018-04-22T08:07:12.024Z,21.7
2018-04-22T08:08:01.804Z,21.8
2018-04-22T08:08:52.151Z,22.1
2018-04-22T08:09:42.208Z,22.2
2018-04-22T08:10:32.285Z,22.5
2018-04-22T08:11:22.052Z,22.3
2018-04-22T08:12:12.391Z,22.1
2018-04-22T08:13:02.461Z,21.9
2018-04-22T08:13:52.037Z,21.8
2018-04-22T08:14:42.328Z,21.9
2018-04-22T08:15:32.397Z,22.1
2018-04-22T08:16:22.033Z,22.5
2018-04-22T08:17:12.798Z,22.6
2018-04-22T08:18:02.566Z,22.8
2018-04-22T08:18:52.910Z,23.1
2018-04-22T08:19:42.530Z,23.1
2018-04-22T08:20:32.212Z,23.1
2018-04-22T08:21:23.106Z,22.8
2018-04-22T08:22:13.189Z,22.4
2018-04-22T08:23:02.381Z,22.6
2018-04-22T08:23:53.048Z,22.8
2018-04-22T08:24:43.362Z,23.1
2018-04-22T08:25:33.183Z,23.2
2018-04-22T08:26:23.504Z,23
2018-04-22T08:27:13.586Z,23.1
2018-04-22T08:28:03.351Z,23.3
2018-04-22T08:28:53.720Z,23
2018-04-22T08:29:43.753Z,22.8
2018-04-22T08:30:33.829Z,23.3
2018-04-22T08:31:23.873Z,23.4
2018-04-22T08:32:13.667Z,23.4
2018-04-22T08:33:03.456Z,23.4
2018-04-22T08:33:54.226Z,23.6
2018-04-22T08:34:44.135Z,23.4
2018-04-22T08:35:33.944Z,23.5
2018-04-22T08:36:24.044Z,23.8
2018-04-22T08:37:14.063Z,23.5
2018-04-22T08:38:04.410Z,23.8
2018-04-22T08:38:54.450Z,24
2018-04-22T08:39:44.520Z,24.1
2018-04-22T08:40:34.323Z,24.3
2018-04-22T08:41:24.397Z,24.3
2018-04-22T08:42:14.728Z,24.3
2018-04-22T08:43:04.500Z,24.3
2018-04-22T08:43:54.442Z,24.4
2018-04-22T08:44:44.927Z,24.4
2018-04-22T08:45:34.685Z,24.4
2018-04-22T08:46:24.791Z,24.4
2018-04-22T08:47:15.114Z,24.4
2018-04-22T08:48:05.217Z,24.4
2018-04-22T08:48:55.237Z,24.4
2018-04-22T08:49:45.307Z,24.5
2018-04-22T08:50:35.456Z,24.3
2018-04-22T08:51:25.155Z,24.1
2018-04-22T08:52:15.224Z,23.9
2018-04-22T08:53:05.561Z,24.3
2018-04-22T08:53:55.634Z,24.2
2018-04-22T08:54:45.436Z,24
2018-04-22T08:55:35.757Z,23.8
2018-04-22T08:56:25.557Z,23.8
2018-04-22T08:57:15.629Z,23.7
2018-04-22T08:58:05.958Z,23.4
2018-04-22T08:58:56.021Z,23.8
2018-04-22T08:59:46.064Z,23.9
2018-04-22T09:00:35.880Z,24
2018-04-22T09:01:26.215Z,23.5
2018-04-22T09:02:16.263Z,23.4
2018-04-22T09:03:06.352Z,24.1
2018-04-22T09:03:56.407Z,24.6
2018-04-22T09:04:46.181Z,24.8
2018-04-22T09:05:36.544Z,24.1
2018-04-22T09:06:26.603Z,23.5
2018-04-22T09:07:16.380Z,23.8
2018-04-22T09:08:06.746Z,24.4
2018-04-22T09:08:56.776Z,24.9
2018-04-22T09:09:46.892Z,25.5
2018-04-22T09:10:36.919Z,25.1
2018-04-22T09:11:26.990Z,24.9
2018-04-22T09:12:17.057Z,25.3
2018-04-22T09:13:06.849Z,25.6
2018-04-22T09:13:57.191Z,25.8
2018-04-22T09:14:46.986Z,25.2
2018-04-22T09:15:37.302Z,24.6
2018-04-22T09:16:27.664Z,24.2
2018-04-22T09:17:17.432Z,23.8
2018-04-22T09:18:07.546Z,24.6
2018-04-22T09:18:57.579Z,24.7
2018-04-22T09:19:47.632Z,24.8
2018-04-22T09:20:37.436Z,24.8
2018-04-22T09:21:27.764Z,24.7
2018-04-22T09:22:17.843Z,24.3
2018-04-22T09:23:07.621Z,25
2018-04-22T09:23:57.972Z,25.3
2018-04-22T09:24:48.031Z,25.5
2018-04-22T09:25:37.576Z,24.7
2018-04-22T09:26:28.162Z,25.4
2018-04-22T09:27:18.243Z,25.4
2018-04-22T09:28:08.031Z,25.6
2018-04-22T09:28:58.333Z,25.8
2018-04-22T09:29:47.860Z,25.2
2018-04-22T09:30:38.476Z,25.5
2018-04-22T09:31:28.545Z,25.8
2018-04-22T09:32:18.329Z,26
2018-04-22T09:33:08.867Z,26.3
2018-04-22T09:33:58.749Z,25.3
2018-04-22T09:34:48.794Z,24.6
2018-04-22T09:35:38.890Z,24.6
2018-04-22T09:36:28.957Z,25.4
2018-04-22T09:37:18.418Z,26.1
2018-04-22T09:38:09.068Z,26.2
2018-04-22T09:38:59.119Z,26.3
2018-04-22T09:39:48.907Z,25.2
2018-04-22T09:40:39.243Z,25.5
2018-04-22T09:41:29.356Z,25.7
2018-04-22T09:42:19.381Z,26.1
2018-04-22T09:43:09.740Z,26.3
2018-04-22T09:43:59.525Z,26.2
2018-04-22T09:44:49.568Z,26
2018-04-22T09:45:39.637Z,26.5
2018-04-22T09:46:29.692Z,26.7
2018-04-22T09:47:19.514Z,26.9
2018-04-22T09:48:09.868Z,27.1
2018-04-22T09:48:59.907Z,27.5
2018-04-22T09:49:50.143Z,27.3
2018-04-22T09:50:39.472Z,27.3
2018-04-22T09:51:30.108Z,27.1
2018-04-22T09:52:20.169Z,27.1
2018-04-22T09:53:10.258Z,26.6
2018-04-22T09:53:59.994Z,26.5
2018-04-22T09:54:50.116Z,26.8
2018-04-22T09:55:40.785Z,26.4
2018-04-22T09:56:30.491Z,26
2018-04-22T09:57:20.260Z,26.1
2018-04-22T09:58:10.621Z,25.7
2018-04-22T09:59:00.405Z,25.4
2018-04-22T09:59:50.750Z,25.9
2018-04-22T10:00:40.816Z,25.6
2018-04-22T10:01:30.306Z,25.9
2018-04-22T10:02:20.962Z,25.7
2018-04-22T10:03:10.997Z,25.9
2018-04-22T10:04:00.796Z,25.8
2018-04-22T10:04:51.238Z,25.3
2018-04-22T10:05:41.189Z,25.8
2018-04-22T10:06:31.339Z,26.2
2018-04-22T10:07:21.047Z,26.3
2018-04-22T10:08:11.417Z,26.2
2018-04-22T10:09:01.452Z,26
2018-04-22T10:09:51.522Z,25.6
2018-04-22T10:10:41.582Z,25.2
2018-04-22T10:11:31.394Z,26.3
2018-04-22T10:12:21.720Z,26.3
2018-04-22T10:13:11.781Z,27
2018-04-22T10:14:01.857Z,27.6
2018-04-22T10:14:51.370Z,27.5
2018-04-22T10:15:41.982Z,27.8
2018-04-22T10:16:31.991Z,27.8
2018-04-22T10:17:22.106Z,28
2018-04-22T10:18:11.645Z,28.1
2018-04-22T10:20:42.397Z,27.2
2018-04-22T10:21:32.458Z,26.9
2018-04-22T10:22:22.222Z,27.5
2018-04-22T10:23:12.292Z,27.6
2018-04-22T10:24:02.358Z,28.3
2018-04-22T10:24:52.411Z,27.9
2018-04-22T10:25:42.485Z,27.6
2018-04-22T10:26:32.841Z,27
2018-04-22T10:27:22.916Z,26.8
2018-04-22T10:28:12.671Z,27.1
2018-04-22T10:29:02.479Z,26.9
2018-04-22T10:29:53.114Z,27.4
2018-04-22T10:30:43.149Z,27.5
2018-04-22T10:31:33.239Z,27.9
2018-04-22T10:32:23.296Z,28.2
2018-04-22T10:33:13.350Z,27.9
2018-04-22T10:34:03.413Z,28
2018-04-22T10:34:52.946Z,28.2
2018-04-22T10:35:43.267Z,28.6
2018-04-22T10:36:33.741Z,28.1
2018-04-22T10:37:23.410Z,27.2
2018-04-22T10:38:13.743Z,27.3
2018-04-22T10:39:03.823Z,27.9
2018-04-22T10:39:53.881Z,28.3
2018-04-22T10:40:43.930Z,28.6
2018-04-22T10:41:34.011Z,28.4
2018-04-22T10:42:24.065Z,28.4
2018-04-22T10:43:14.140Z,28.3
2018-04-22T10:44:04.211Z,28.4
2018-04-22T10:44:53.989Z,28.9
2018-04-22T10:45:44.050Z,28.6
2018-04-22T10:46:34.418Z,28.7
2018-04-22T10:47:24.220Z,28.4
2018-04-22T10:48:14.519Z,28.3
2018-04-22T10:49:04.596Z,28.3
2018-04-22T10:49:54.680Z,28
2018-04-22T10:50:44.725Z,28
2018-04-22T10:51:34.781Z,27.8
2018-04-22T10:52:24.840Z,27.7
2018-04-22T10:53:14.912Z,27.1
2018-04-22T10:54:05.042Z,27.6
2018-04-22T10:54:55.045Z,27.8
2018-04-22T10:55:45.115Z,27.7
2018-04-22T10:56:34.893Z,27.2
2018-04-22T10:57:24.696Z,27.6
2018-04-22T10:58:15.306Z,27
2018-04-22T10:59:05.220Z,26.8
2018-04-22T10:59:55.765Z,26.8
2018-04-22T11:00:45.516Z,27.6
2018-04-22T11:01:35.282Z,27.6
2018-04-22T11:02:25.637Z,28.1
2018-04-22T11:03:15.402Z,28.4
2018-04-22T11:04:05.206Z,28.6
2018-04-22T11:04:55.620Z,28.9
2018-04-22T11:05:45.616Z,28.8
2018-04-22T11:06:35.977Z,28.8
2018-04-22T11:07:26.028Z,28.5
2018-04-22T11:08:15.806Z,28.6
2018-04-22T11:09:06.161Z,28.4
2018-04-22T11:09:55.927Z,28.3
2018-04-22T11:10:46.008Z,27.8
2018-04-22T11:11:36.093Z,27.8
2018-04-22T11:12:25.839Z,27.2
2018-04-22T11:13:16.212Z,27.9
2018-04-22T11:14:06.539Z,28.4
2018-04-22T11:14:56.614Z,28.8
2018-04-22T11:15:46.390Z,28.9
2018-04-22T11:16:36.760Z,29.1
2018-04-22T11:17:26.805Z,29.1
2018-04-22T11:18:16.859Z,29
2018-04-22T11:19:06.950Z,29.1
2018-04-22T11:19:57.011Z,29.3
2018-04-22T11:20:47.049Z,29.7
2018-04-22T11:21:37.131Z,29.8
2018-04-22T11:22:27.176Z,29.8
2018-04-22T11:23:16.987Z,29.6